Time;durP1;ratioP1;P1;durP2;ratioP2;P2;SDS_P1;SDS_P2;PMS_P1;PMS_P2;Temp;Humidity;BMP_temperature;BMP_pressure;BME280_temperature;BME280_humidity;BME280_pressure;Samples;Min_cycle;Max_cycle;Signal;HPM_P1;HPM_P2
2022/08/18 00:01:44;;;;;;;15.63;8.10;;;;;;;21.35;82.66;98687.39;1680648;85;21029;-79
2022/08/18 00:04:11;;;;;;;13.78;7.37;;;;;;;21.31;82.45;98688.09;1680859;85;21071;-78
2022/08/18 00:06:38;;;;;;;13.60;8.03;;;;;;;21.24;82.01;98692.14;1680742;85;20979;-79
2022/08/18 00:09:09;;;;;;;15.00;8.10;;;;;;;21.15;82.33;98700.30;1680703;85;21089;-78
2022/08/18 00:11:40;;;;;;;15.58;8.15;;;;;;;21.09;83.13;98699.44;1680561;85;21008;-78
2022/08/18 00:14:10;;;;;;;10.03;7.47;;;;;;;21.02;82.43;98700.84;1680587;85;21014;-77
2022/08/18 00:16:37;;;;;;;11.53;7.00;;;;;;;20.95;82.74;98696.50;1680520;85;21042;-77
2022/08/18 00:19:04;;;;;;;12.40;7.72;;;;;;;20.91;83.63;98699.47;1680504;85;21031;-79
2022/08/18 00:21:30;;;;;;;15.60;7.25;;;;;;;20.90;83.46;98705.72;1680583;85;21606;-78
2022/08/18 00:23:57;;;;;;;12.85;8.08;;;;;;;20.89;83.52;98696.09;1659103;85;21038;-78
2022/08/18 00:26:23;;;;;;;18.20;8.75;;;;;;;20.89;83.61;98700.92;1674349;85;21553;-78
2022/08/18 00:28:50;;;;;;;15.20;7.67;;;;;;;20.90;83.95;98699.12;1658220;85;21098;-78
2022/08/18 00:31:17;;;;;;;10.72;7.12;;;;;;;20.89;83.86;98706.21;1680786;85;21610;-77
2022/08/18 00:33:43;;;;;;;15.80;7.30;;;;;;;20.89;83.77;98705.34;1673151;85;21035;-78
2022/08/18 00:36:11;;;;;;;16.93;7.45;;;;;;;20.85;83.94;98702.95;1681016;85;21027;-78
2022/08/18 00:38:39;;;;;;;14.65;8.70;;;;;;;20.82;83.99;98699.19;1680653;85;21083;-79
2022/08/18 00:41:06;;;;;;;17.52;8.38;;;;;;;20.82;84.12;98706.28;1680975;85;20983;-78
2022/08/18 00:43:47;;;;;;;16.82;8.33;;;;;;;20.77;84.40;98710.59;1680750;85;21002;-78
2022/08/18 00:46:22;;;;;;;14.33;8.18;;;;;;;20.73;84.24;98715.73;1680295;85;20979;-80
2022/08/18 00:48:49;;;;;;;15.13;8.28;;;;;;;20.74;85.03;98707.33;1680651;85;20991;-78
2022/08/18 00:51:23;;;;;;;16.55;8.03;;;;;;;20.79;85.56;98710.00;1680553;85;21558;-78
2022/08/18 00:54:07;;;;;;;17.17;8.05;;;;;;;20.82;85.10;98708.92;1666905;86;21067;-78
2022/08/18 00:56:45;;;;;;;10.28;7.03;;;;;;;20.81;84.72;98705.91;1706963;84;21664;-79
2022/08/18 00:59:26;;;;;;;14.07;7.72;;;;;;;20.81;84.44;98706.77;1707909;84;21112;-78
2022/08/18 01:01:59;;;;;;;14.68;7.35;;;;;;;20.80;85.10;98701.11;1707772;84;21061;-79
2022/08/18 01:04:34;;;;;;;13.68;7.53;;;;;;;20.82;84.71;98693.91;1683341;85;21580;-79
2022/08/18 01:07:28;;;;;;;19.27;7.55;;;;;;;20.84;84.53;98701.73;1683354;85;21051;-79
2022/08/18 01:09:54;;;;;;;14.30;7.62;;;;;;;20.86;84.49;98691.41;1683181;85;21066;-79
2022/08/18 01:12:21;;;;;;;11.95;7.42;;;;;;;20.90;84.67;98698.63;1683109;85;21047;-79
2022/08/18 01:14:47;;;;;;;14.75;7.55;;;;;;;20.88;84.67;98702.35;1683258;85;21044;-79
2022/08/18 01:23:03;;;;;;;23.35;8.13;;;;;;;20.87;85.28;98709.45;1639605;87;21504;-78
2022/08/18 01:28:19;;;;;;;14.38;7.87;;;;;;;20.81;84.81;98702.81;1707927;84;21038;-77
2022/08/18 01:30:56;;;;;;;11.50;7.30;;;;;;;20.83;85.14;98703.53;1688007;84;20997;-78
2022/08/18 01:33:20;;;;;;;12.95;7.58;;;;;;;20.78;84.41;98705.66;1707439;84;21041;-81
2022/08/18 01:35:48;;;;;;;13.88;7.42;;;;;;;20.77;85.23;98717.66;1682931;85;21019;-78
2022/08/18 01:38:17;;;;;;;12.98;7.20;;;;;;;20.78;85.74;98708.30;1683451;85;21053;-78
2022/08/18 01:40:45;;;;;;;15.43;7.03;;;;;;;20.80;85.60;98712.16;1683412;85;21119;-79
2022/08/18 01:43:13;;;;;;;16.50;7.12;;;;;;;20.80;85.41;98706.39;1707890;84;21029;-78
2022/08/18 01:45:41;;;;;;;12.90;6.47;;;;;;;20.76;85.65;98703.61;1704860;84;21009;-78
2022/08/18 01:48:08;;;;;;;13.90;6.83;;;;;;;20.76;85.40;98702.29;1688614;84;21023;-78
2022/08/18 01:50:38;;;;;;;12.60;7.55;;;;;;;20.75;85.69;98697.98;1706070;84;21045;-78
2022/08/18 01:53:07;;;;;;;15.93;7.45;;;;;;;20.76;85.79;98689.56;1705603;84;21096;-78
2022/08/18 01:55:38;;;;;;;15.00;6.55;;;;;;;20.76;85.04;98691.72;1684895;85;21004;-79
2022/08/18 01:58:06;;;;;;;15.90;7.47;;;;;;;20.72;85.02;98696.87;1685267;85;21562;-79
2022/08/18 02:00:35;;;;;;;15.05;7.20;;;;;;;20.64;84.69;98711.11;1686182;85;20949;-77
2022/08/18 02:03:10;;;;;;;12.05;6.95;;;;;;;20.54;85.15;98707.42;1688658;80;21251;-78
2022/08/18 02:05:42;;;;;;;16.77;6.87;;;;;;;20.51;85.13;98710.27;1707889;83;21055;-77
2022/08/18 02:08:11;;;;;;;14.40;7.03;;;;;;;20.50;86.64;98702.00;1657976;82;21072;-78
2022/08/18 02:10:39;;;;;;;13.20;7.35;;;;;;;20.54;86.49;98706.11;1705497;84;20962;-78
2022/08/18 02:13:05;;;;;;;15.72;7.30;;;;;;;20.59;87.55;98701.34;1686079;85;21071;-79
2022/08/18 02:15:32;;;;;;;12.55;7.35;;;;;;;20.63;87.20;98695.75;1666944;85;21060;-79
2022/08/18 02:17:59;;;;;;;16.02;7.80;;;;;;;20.63;86.86;98690.47;1686031;85;21071;-78
2022/08/18 02:20:25;;;;;;;15.30;7.50;;;;;;;20.67;87.05;98692.38;1686151;85;21016;-77
2022/08/18 02:22:52;;;;;;;13.22;7.85;;;;;;;20.64;85.95;98695.27;1685923;85;21112;-78
2022/08/18 02:25:19;;;;;;;14.53;7.53;;;;;;;20.64;86.48;98705.83;1685863;84;21056;-78
2022/08/18 02:27:46;;;;;;;16.00;7.37;;;;;;;20.65;87.18;98710.14;1681097;85;21072;-79
2022/08/18 02:30:17;;;;;;;16.67;7.85;;;;;;;20.66;87.11;98702.59;1685551;85;21052;-78
2022/08/18 02:32:44;;;;;;;13.15;7.45;;;;;;;20.68;87.16;98707.30;1685528;85;21008;-78
2022/08/18 02:35:10;;;;;;;19.65;7.65;;;;;;;20.71;87.11;98704.89;1683265;85;21085;-78
2022/08/18 02:37:39;;;;;;;15.60;7.90;;;;;;;20.72;87.16;98701.31;1684345;85;21071;-78
2022/08/18 02:40:08;;;;;;;20.57;7.80;;;;;;;20.72;86.73;98696.03;1684528;85;21012;-78
2022/08/18 02:42:37;;;;;;;13.08;8.00;;;;;;;20.69;86.68;98700.20;1684442;84;21049;-78
2022/08/18 02:45:05;;;;;;;15.83;8.38;;;;;;;20.69;86.75;98696.24;1657011;85;21019;-78
2022/08/18 02:47:32;;;;;;;13.53;8.23;;;;;;;20.68;86.81;98697.21;1679365;84;21054;-78
2022/08/18 02:49:58;;;;;;;13.55;8.23;;;;;;;20.64;87.01;98692.63;1670106;85;20984;-78
2022/08/18 02:52:31;;;;;;;15.75;7.62;;;;;;;20.61;86.76;98690.19;1684392;84;21100;-78
2022/08/18 02:54:59;;;;;;;20.20;9.00;;;;;;;20.57;87.31;98681.64;1684996;85;21178;-77
2022/08/18 02:57:27;;;;;;;15.80;7.95;;;;;;;20.51;85.94;98683.38;1674710;86;21070;-78
2022/08/18 02:59:54;;;;;;;12.55;7.10;;;;;;;20.43;87.30;98693.20;1684949;85;20970;-78
2022/08/18 03:02:21;;;;;;;14.80;8.18;;;;;;;20.35;85.92;98695.56;1685009;85;21033;-78
2022/08/18 03:04:50;;;;;;;16.67;7.22;;;;;;;20.30;87.10;98701.62;1684821;84;21010;-77
2022/08/18 03:07:17;;;;;;;15.68;7.70;;;;;;;20.28;87.60;98700.90;1685126;84;20970;-78
2022/08/18 03:09:43;;;;;;;15.40;8.18;;;;;;;20.24;88.17;98704.71;1684815;84;20986;-78
2022/08/18 03:12:10;;;;;;;15.88;8.55;;;;;;;20.20;87.73;98698.80;1684993;85;21022;-78
2022/08/18 03:14:38;;;;;;;12.25;7.70;;;;;;;20.18;88.08;98702.51;1684853;84;21070;-78
2022/08/18 03:17:07;;;;;;;17.27;8.08;;;;;;;20.18;88.51;98702.02;1684894;85;20981;-77
2022/08/18 03:19:35;;;;;;;13.03;7.62;;;;;;;20.15;87.71;98706.67;1684782;84;22123;-78
2022/08/18 03:22:03;;;;;;;14.23;8.20;;;;;;;20.12;88.06;98702.46;1684974;85;21034;-79
2022/08/18 03:24:31;;;;;;;15.28;7.35;;;;;;;20.13;88.17;98709.41;1685088;84;21014;-78
2022/08/18 03:26:58;;;;;;;12.58;7.67;;;;;;;20.16;88.85;98712.33;1684741;85;21493;-78
2022/08/18 03:29:25;;;;;;;16.50;7.83;;;;;;;20.18;88.71;98714.38;1685004;84;21025;-78
2022/08/18 03:31:52;;;;;;;12.10;8.10;;;;;;;20.18;88.33;98713.90;1684780;84;21017;-78
2022/08/18 03:34:20;;;;;;;17.07;7.50;;;;;;;20.18;88.50;98708.62;1684901;84;20998;-78
2022/08/18 03:36:49;;;;;;;17.15;8.38;;;;;;;20.17;87.97;98706.09;1685043;84;20978;-79
2022/08/18 03:39:18;;;;;;;13.90;8.30;;;;;;;20.14;87.87;98711.59;1684878;85;21024;-80
2022/08/18 03:41:45;;;;;;;18.55;7.90;;;;;;;20.13;88.19;98705.45;1668189;84;21024;-78
2022/08/18 03:44:14;;;;;;;15.85;8.23;;;;;;;20.13;88.73;98708.09;1671982;86;21018;-78
2022/08/18 03:46:43;;;;;;;18.73;7.97;;;;;;;20.11;88.39;98707.84;1684898;85;21021;-78
2022/08/18 03:49:11;;;;;;;22.93;8.58;;;;;;;20.12;88.57;98708.22;1684831;85;20982;-78
2022/08/18 03:51:38;;;;;;;22.30;8.15;;;;;;;20.12;88.82;98702.95;1684799;84;21612;-78
2022/08/18 03:54:05;;;;;;;24.25;8.15;;;;;;;20.11;88.32;98706.52;1668723;86;21078;-78
2022/08/18 03:56:37;;;;;;;16.25;8.85;;;;;;;20.06;88.58;98711.65;1667273;86;21534;-78
2022/08/18 03:59:11;;;;;;;18.27;8.45;;;;;;;20.04;88.62;98717.51;1667365;86;21024;-78
2022/08/18 04:01:40;;;;;;;16.75;8.28;;;;;;;20.03;88.23;98720.25;1667358;86;20995;-78
2022/08/18 04:04:11;;;;;;;22.05;8.08;;;;;;;19.95;88.50;98724.73;1640505;86;21079;-78
2022/08/18 04:06:43;;;;;;;18.85;9.28;;;;;;;19.92;88.83;98726.28;1667393;86;21019;-78
2022/08/18 04:09:13;;;;;;;16.45;8.95;;;;;;;19.90;88.96;98724.72;1667354;86;21050;-78
2022/08/18 04:11:42;;;;;;;18.98;9.25;;;;;;;19.88;88.54;98726.61;1659262;86;20987;-78
2022/08/18 04:14:16;;;;;;;13.93;8.15;;;;;;;19.83;89.34;98727.75;1667379;86;21117;-78
2022/08/18 04:16:44;;;;;;;18.50;9.30;;;;;;;19.82;89.08;98734.47;1667157;86;21037;-77
2022/08/18 04:19:12;;;;;;;16.02;8.45;;;;;;;19.81;89.32;98740.20;1646346;86;21031;-78
2022/08/18 04:21:41;;;;;;;14.25;8.13;;;;;;;19.81;89.49;98730.97;1654467;86;21566;-78
2022/08/18 04:24:10;;;;;;;18.52;7.75;;;;;;;19.85;89.92;98726.33;1678369;84;21490;-78
2022/08/18 04:26:46;;;;;;;18.02;7.78;;;;;;;19.88;89.77;98726.61;1694539;84;21015;-78
2022/08/18 04:29:16;;;;;;;16.37;7.50;;;;;;;19.92;89.30;98731.56;1678239;84;21038;-78
2022/08/18 04:31:44;;;;;;;17.92;7.67;;;;;;;19.93;89.40;98737.19;1696801;84;21033;-78
2022/08/18 04:34:12;;;;;;;18.65;8.15;;;;;;;19.95;89.21;98739.25;1696897;84;21024;-78
2022/08/18 04:36:40;;;;;;;15.43;9.58;;;;;;;19.93;88.85;98736.36;1696815;84;21056;-78
2022/08/18 04:39:10;;;;;;;20.85;9.60;;;;;;;19.97;89.32;98735.19;1696802;84;21014;-77
2022/08/18 04:41:39;;;;;;;19.07;9.20;;;;;;;20.01;89.39;98736.17;1681480;84;21066;-80
2022/08/18 04:44:08;;;;;;;17.32;9.05;;;;;;;20.03;89.20;98740.03;1693229;84;21053;-80
2022/08/18 04:46:39;;;;;;;16.00;8.60;;;;;;;20.09;89.08;98749.33;1697128;84;21005;-78
2022/08/18 04:49:08;;;;;;;18.73;9.00;;;;;;;20.09;89.16;98733.49;1696980;84;21463;-80
2022/08/18 04:51:35;;;;;;;17.40;8.73;;;;;;;20.12;88.97;98734.13;1696929;84;21076;-78
2022/08/18 04:54:01;;;;;;;21.20;9.40;;;;;;;20.18;88.82;98736.82;1689062;84;21067;-78
2022/08/18 04:56:38;;;;;;;18.23;9.20;;;;;;;20.22;88.88;98740.92;1669058;85;21541;-78
2022/08/18 04:59:13;;;;;;;19.92;9.35;;;;;;;20.27;88.48;98742.75;1686933;84;20962;-78
2022/08/18 05:01:46;;;;;;;19.82;9.18;;;;;;;20.31;88.37;98743.38;1669692;84;21031;-79
2022/08/18 05:04:16;;;;;;;24.12;9.63;;;;;;;20.35;88.22;98736.48;1675590;85;21006;-76
2022/08/18 05:06:44;;;;;;;16.30;8.68;;;;;;;20.40;88.08;98735.66;1687003;84;21082;-78
2022/08/18 05:09:13;;;;;;;19.17;9.53;;;;;;;20.46;87.85;98733.89;1687093;84;21049;-77
2022/08/18 05:11:43;;;;;;;21.87;9.98;;;;;;;20.51;87.55;98745.92;1686715;85;21022;-78
2022/08/18 05:14:10;;;;;;;23.55;10.10;;;;;;;20.55;87.22;98740.78;1684818;85;20963;-77
2022/08/18 05:16:37;;;;;;;19.40;10.00;;;;;;;20.55;87.32;98742.11;1684520;85;21312;-86
2022/08/18 05:19:07;;;;;;;20.70;9.85;;;;;;;20.61;86.81;98750.94;1687982;84;21229;-85
2022/08/18 05:21:35;;;;;;;14.95;8.70;;;;;;;20.59;86.89;98751.07;1676144;85;21079;-80
2022/08/18 05:24:04;;;;;;;16.30;8.80;;;;;;;20.61;86.37;98749.16;1681723;85;21082;-79
2022/08/18 05:26:31;;;;;;;11.43;8.10;;;;;;;20.64;86.07;98752.88;1679426;85;21091;-80
2022/08/18 05:28:58;;;;;;;15.85;8.23;;;;;;;20.69;85.75;98753.03;1684483;85;21087;-79
2022/08/18 05:31:27;;;;;;;16.07;8.93;;;;;;;20.76;85.57;98751.16;1686967;85;21035;-79
2022/08/18 05:33:56;;;;;;;18.92;9.05;;;;;;;20.81;85.51;98749.04;1685005;84;21019;-79
2022/08/18 05:36:49;;;;;;;13.93;8.13;;;;;;;20.90;85.56;98747.52;1676313;84;21076;-83
2022/08/18 05:39:36;;;;;;;14.63;8.33;;;;;;;20.96;85.21;98748.86;1650009;87;21064;-85
2022/08/18 05:42:15;;;;;;;18.23;8.43;;;;;;;21.06;84.97;98744.58;1676338;84;21043;-84
2022/08/18 05:44:47;;;;;;;15.08;7.87;;;;;;;21.12;84.63;98745.94;1689481;84;21011;-85
2022/08/18 05:47:22;;;;;;;13.30;8.20;;;;;;;21.17;84.36;98746.42;1669586;85;21076;-84
2022/08/18 05:49:50;;;;;;;14.90;8.43;;;;;;;21.26;84.04;98744.42;1689259;84;21075;-85
2022/08/18 05:52:36;;;;;;;17.90;8.68;;;;;;;21.29;83.77;98749.95;1688185;85;21074;-85
2022/08/18 05:58:17;;;;;;;14.73;8.38;;;;;;;21.34;82.33;98747.33;1653654;86;21081;-84
2022/08/18 06:00:51;;;;;;;20.23;9.08;;;;;;;21.37;82.27;98751.08;1662172;84;21019;-84
2022/08/18 06:03:25;;;;;;;14.98;8.15;;;;;;;21.37;81.94;98752.41;1688573;85;21063;-86
2022/08/18 06:05:57;;;;;;;14.55;8.00;;;;;;;21.37;81.34;98748.92;1708205;84;21014;-85
2022/08/18 06:08:28;;;;;;;12.30;7.17;;;;;;;21.36;80.70;98747.22;1707974;84;21082;-86
2022/08/18 06:10:55;;;;;;;15.00;8.23;;;;;;;21.35;80.78;98745.55;1687423;85;21074;-85
2022/08/18 06:13:22;;;;;;;20.17;8.70;;;;;;;21.41;81.02;98751.70;1674765;85;21087;-86
2022/08/18 06:16:06;;;;;;;12.75;7.20;;;;;;;21.43;80.85;98749.81;1707529;84;21030;-84
2022/08/18 06:19:18;;;;;;;14.03;8.00;;;;;;;21.53;81.18;98754.77;1708065;84;21033;-86
2022/08/18 06:22:13;;;;;;;14.35;8.60;;;;;;;21.61;80.98;98756.84;1706981;84;21031;-83
2022/08/18 06:24:55;;;;;;;15.10;7.92;;;;;;;21.70;80.96;98753.95;1706915;84;20998;-83
2022/08/18 06:27:54;;;;;;;16.12;7.97;;;;;;;21.85;81.10;98753.63;1695767;84;21053;-84
2022/08/18 06:30:22;;;;;;;16.37;8.05;;;;;;;21.98;80.71;98761.45;1685782;84;21061;-84
2022/08/18 06:33:15;;;;;;;14.47;8.07;;;;;;;22.12;80.18;98766.16;1675910;85;21032;-83
2022/08/18 06:35:51;;;;;;;14.55;8.50;;;;;;;22.21;79.79;98753.53;1686399;85;21030;-84
2022/08/18 06:38:38;;;;;;;16.20;8.20;;;;;;;22.33;79.69;98751.27;1686249;84;21062;-85
2022/08/18 06:41:19;;;;;;;13.30;7.60;;;;;;;22.44;78.92;98757.02;1683643;84;21017;-84
2022/08/18 06:43:59;;;;;;;16.42;8.35;;;;;;;22.49;78.96;98751.37;1705985;84;21090;-84
2022/08/18 06:46:49;;;;;;;14.85;7.87;;;;;;;22.56;78.17;98759.18;1706368;84;21079;-84
2022/08/18 06:49:39;;;;;;;15.95;7.53;;;;;;;22.61;77.92;98755.69;1627068;84;21487;-85
2022/08/18 06:52:35;;;;;;;14.75;7.37;;;;;;;22.70;77.96;98750.98;1676063;85;21062;-85
2022/08/18 06:55:12;;;;;;;18.52;7.83;;;;;;;22.79;77.64;98747.58;1704550;84;21058;-84
2022/08/18 06:57:57;;;;;;;13.58;8.30;;;;;;;22.88;77.11;98753.95;1683075;85;21008;-85
2022/08/18 07:00:30;;;;;;;13.98;7.95;;;;;;;22.97;76.99;98751.02;1654164;85;21009;-83
2022/08/18 07:03:13;;;;;;;17.57;8.65;;;;;;;23.05;76.83;98752.59;1675637;85;21571;-84
2022/08/18 07:06:22;;;;;;;20.02;9.08;;;;;;;23.14;76.37;98747.00;1689235;84;21003;-84
2022/08/18 07:08:55;;;;;;;18.17;8.10;;;;;;;23.21;76.21;98753.00;1676080;85;21026;-85
2022/08/18 07:11:27;;;;;;;13.25;7.25;;;;;;;23.31;76.12;98750.43;1689072;85;21006;-84
2022/08/18 07:14:14;;;;;;;13.32;7.55;;;;;;;23.40;76.20;98748.34;1688812;85;20998;-84
2022/08/18 07:16:41;;;;;;;15.18;8.00;;;;;;;23.52;76.32;98743.83;1668940;85;21061;-84
2022/08/18 07:19:15;;;;;;;16.25;7.25;;;;;;;23.67;75.85;98751.45;1678273;84;21127;-84
2022/08/18 07:21:43;;;;;;;15.25;8.35;;;;;;;23.70;75.08;98738.77;1682124;85;21574;-84
2022/08/18 07:24:21;;;;;;;14.90;7.97;;;;;;;23.78;74.91;98744.30;1689910;84;21480;-85
2022/08/18 07:27:08;;;;;;;18.92;8.70;;;;;;;23.82;74.63;98739.57;1688249;85;21069;-84
2022/08/18 07:29:40;;;;;;;20.85;9.03;;;;;;;23.93;74.33;98744.78;1689359;84;21030;-85
2022/08/18 07:32:15;;;;;;;14.83;8.80;;;;;;;24.00;72.37;98745.11;1686756;85;21006;-85
2022/08/18 07:34:50;;;;;;;16.67;8.23;;;;;;;24.06;73.21;98743.75;1676219;81;21071;-84
2022/08/18 07:37:41;;;;;;;15.38;9.03;;;;;;;24.09;72.49;98750.10;1649642;83;21062;-84
2022/08/18 07:40:34;;;;;;;16.75;8.68;;;;;;;24.15;72.46;98746.45;1619801;85;20976;-84
2022/08/18 07:43:11;;;;;;;13.00;8.63;;;;;;;24.24;71.99;98747.95;1610008;87;21131;-84
2022/08/18 07:45:46;;;;;;;16.12;8.38;;;;;;;24.34;72.09;98737.70;1670584;84;21062;-84
2022/08/18 07:48:24;;;;;;;19.73;8.78;;;;;;;24.40;72.00;98739.81;1674238;85;21029;-84
2022/08/18 07:51:24;;;;;;;14.63;8.03;;;;;;;24.45;71.41;98739.89;1689387;85;21046;-84
2022/08/18 07:54:03;;;;;;;15.80;7.65;;;;;;;24.49;69.45;98742.16;1670237;85;21091;-84
2022/08/18 07:56:58;;;;;;;16.20;7.80;;;;;;;24.57;70.87;98733.52;1660393;86;21076;-84
2022/08/18 07:59:50;;;;;;;15.65;8.08;;;;;;;24.64;69.91;98735.16;1685569;85;20998;-84
2022/08/18 08:02:25;;;;;;;14.00;7.58;;;;;;;24.70;69.97;98736.77;1689282;84;21101;-83
2022/08/18 08:05:05;;;;;;;13.55;7.33;;;;;;;24.74;69.39;98739.50;1662953;85;20998;-85
2022/08/18 08:07:49;;;;;;;14.70;7.35;;;;;;;24.84;68.15;98734.70;1637112;85;21063;-83
2022/08/18 08:10:50;;;;;;;12.85;7.22;;;;;;;24.93;69.15;98733.39;1688984;85;20998;-85
2022/08/18 08:13:43;;;;;;;13.88;8.20;;;;;;;25.06;68.88;98729.61;1668462;84;21116;-85
2022/08/18 08:16:18;;;;;;;15.20;7.97;;;;;;;25.18;67.84;98728.48;1682331;85;21071;-85
2022/08/18 08:19:09;;;;;;;12.28;7.45;;;;;;;25.28;67.22;98739.16;1675106;84;21014;-85
2022/08/18 08:21:41;;;;;;;15.15;7.87;;;;;;;25.39;67.37;98739.02;1645061;86;21012;-85
2022/08/18 08:24:28;;;;;;;14.10;7.05;;;;;;;25.49;66.76;98739.84;1667524;86;21555;-84
2022/08/18 08:27:36;;;;;;;13.10;7.60;;;;;;;25.53;65.43;98731.92;1623794;86;21422;-83
2022/08/18 08:30:16;;;;;;;14.93;10.70;;;;;;;25.63;65.91;98728.41;1669678;86;21051;-85
2022/08/18 08:33:22;;;;;;;11.57;7.45;;;;;;;25.72;65.31;98724.37;1632001;87;21059;-84
2022/08/18 08:36:13;;;;;;;15.35;7.12;;;;;;;25.81;64.54;98725.34;1668716;85;21118;-83
2022/08/18 08:38:51;;;;;;;12.45;7.45;;;;;;;25.90;64.70;98723.16;1668063;86;21046;-83
2022/08/18 08:41:48;;;;;;;13.93;8.18;;;;;;;26.04;64.65;98725.02;1662687;86;21031;-83
2022/08/18 08:44:45;;;;;;;15.68;8.13;;;;;;;26.11;64.49;98724.28;1675640;86;21009;-84
2022/08/18 08:47:24;;;;;;;14.03;8.60;;;;;;;26.21;62.14;98736.23;1673784;85;21051;-83
2022/08/18 08:50:05;;;;;;;16.55;7.12;;;;;;;26.31;63.63;98721.54;1628634;86;21122;-84
2022/08/18 08:52:49;;;;;;;11.85;7.70;;;;;;;26.36;63.43;98723.25;1664421;85;21546;-85
2022/08/18 08:55:26;;;;;;;22.27;8.03;;;;;;;26.49;62.95;98719.75;1688689;84;21057;-84
2022/08/18 08:58:16;;;;;;;11.88;7.35;;;;;;;26.57;62.39;98718.50;1705791;84;21037;-83
2022/08/18 09:00:45;;;;;;;14.78;7.80;;;;;;;26.67;63.11;98709.14;1686229;85;21068;-84
2022/08/18 09:03:30;;;;;;;15.10;7.42;;;;;;;26.79;62.08;98716.44;1705889;84;21041;-84
2022/08/18 09:06:19;;;;;;;11.68;7.17;;;;;;;26.93;61.67;98719.07;1686198;85;21032;-85
2022/08/18 09:09:03;;;;;;;18.45;7.80;;;;;;;26.98;61.40;98718.13;1686087;85;20984;-84
2022/08/18 09:11:47;;;;;;;12.85;7.58;;;;;;;27.07;61.88;98715.03;1685652;84;21036;-85
2022/08/18 09:14:30;;;;;;;13.88;7.20;;;;;;;27.15;61.59;98711.93;1686151;85;21051;-84
2022/08/18 09:17:08;;;;;;;15.88;7.08;;;;;;;27.28;60.40;98708.09;1700792;84;21097;-84
2022/08/18 09:20:07;;;;;;;17.52;7.37;;;;;;;27.36;60.50;98702.81;1686313;85;20997;-85
2022/08/18 09:23:07;;;;;;;14.38;7.33;;;;;;;27.47;60.74;98701.20;1652102;85;21044;-84
2022/08/18 09:25:42;;;;;;;11.95;7.35;;;;;;;27.61;60.16;98689.63;1686501;85;21467;-85
2022/08/18 09:28:17;;;;;;;15.30;7.30;;;;;;;27.70;58.10;98690.85;1686693;85;21067;-85
2022/08/18 09:31:04;;;;;;;10.85;6.97;;;;;;;27.84;59.07;98689.42;1688589;84;21023;-86
2022/08/18 09:33:44;;;;;;;11.88;6.62;;;;;;;27.96;56.72;98690.02;1706782;84;21075;-86
2022/08/18 09:36:25;;;;;;;13.68;6.53;;;;;;;28.09;57.09;98693.10;1657310;87;21048;-86
2022/08/18 09:41:56;;;;;;;19.02;6.80;;;;;;;28.25;57.41;98683.45;1672024;85;21019;-86
2022/08/18 09:44:49;;;;;;;10.23;6.22;;;;;;;28.44;57.50;98674.34;1707715;83;21086;-84
2022/08/18 09:47:29;;;;;;;14.10;6.72;;;;;;;28.59;57.61;98679.91;1657798;87;21101;-84
2022/08/18 09:50:01;;;;;;;13.25;6.75;;;;;;;28.71;56.70;98669.23;1704188;84;21100;-85
2022/08/18 09:52:39;;;;;;;10.28;5.72;;;;;;;28.83;55.63;98669.74;1685042;85;21067;-87
2022/08/18 09:55:19;;;;;;;12.55;5.97;;;;;;;28.92;53.94;98668.25;1687212;85;21100;-86
2022/08/18 09:58:08;;;;;;;9.25;5.87;;;;;;;29.05;55.52;98661.08;1676805;85;21033;-87
2022/08/18 10:00:35;;;;;;;11.08;6.00;;;;;;;29.17;54.10;98669.64;1688335;83;21111;-85
2022/08/18 10:03:13;;;;;;;10.18;5.95;;;;;;;29.25;54.49;98658.92;1687900;85;21020;-87
2022/08/18 10:05:44;;;;;;;9.95;6.05;;;;;;;29.40;54.16;98663.08;1701045;84;21076;-87
2022/08/18 10:08:25;;;;;;;8.95;5.95;;;;;;;29.51;52.81;98660.56;1671671;86;21048;-87
2022/08/18 10:11:15;;;;;;;9.48;5.42;;;;;;;29.68;52.54;98660.01;1673310;86;21110;-87
2022/08/18 10:14:02;;;;;;;7.97;5.28;;;;;;;29.81;52.35;98666.22;1679365;84;21015;-86
2022/08/18 10:16:43;;;;;;;12.75;6.08;;;;;;;30.03;52.75;98667.31;1671428;85;21130;-86
2022/08/18 10:19:21;;;;;;;15.00;6.45;;;;;;;30.25;52.72;98661.68;1686051;84;21052;-84
2022/08/18 10:22:01;;;;;;;14.43;6.90;;;;;;;30.46;50.53;98661.94;1696463;84;20980;-85
2022/08/18 10:24:33;;;;;;;12.13;5.53;;;;;;;30.64;50.94;98658.97;1684682;84;21005;-87
2022/08/18 10:27:04;;;;;;;10.20;5.80;;;;;;;30.83;50.28;98662.19;1694782;84;21054;-85
2022/08/18 10:29:50;;;;;;;7.45;4.92;;;;;;;30.97;50.26;98661.95;1664652;84;21018;-86
2022/08/18 10:32:22;;;;;;;10.38;5.47;;;;;;;31.12;48.75;98658.30;1693568;84;21487;-85
2022/08/18 10:34:51;;;;;;;12.05;5.97;;;;;;;31.26;48.92;98654.49;1677346;85;21707;-86
2022/08/18 10:37:44;;;;;;;9.18;5.35;;;;;;;31.38;47.78;98662.42;1642042;86;21482;-85
2022/08/18 10:40:16;;;;;;;10.32;5.40;;;;;;;31.48;47.38;98654.14;1668233;85;21054;-85
2022/08/18 10:43:10;;;;;;;13.53;5.95;;;;;;;31.64;47.68;98659.85;1659192;86;21040;-84
2022/08/18 10:45:46;;;;;;;8.58;4.55;;;;;;;31.77;47.10;98664.56;1698785;84;21044;-84
2022/08/18 10:48:23;;;;;;;8.25;5.00;;;;;;;32.02;46.15;98669.19;1700776;84;21065;-87
2022/08/18 10:51:07;;;;;;;8.35;5.28;;;;;;;32.05;45.43;98664.28;1665775;84;21023;-85
2022/08/18 10:53:55;;;;;;;11.50;5.28;;;;;;;32.15;45.45;98660.45;1657742;86;21031;-85
2022/08/18 10:56:36;;;;;;;10.72;6.08;;;;;;;32.12;44.12;98661.66;1674419;85;21066;-85
2022/08/18 10:59:40;;;;;;;11.80;5.55;;;;;;;31.91;43.09;98665.06;1651241;87;21031;-85
2022/08/18 11:02:44;;;;;;;12.53;5.35;;;;;;;31.86;42.99;98662.13;1708497;84;21074;-86
2022/08/18 11:05:14;;;;;;;7.72;5.45;;;;;;;31.73;44.18;98656.55;1644459;87;21034;-86
2022/08/18 11:07:45;;;;;;;10.23;5.42;;;;;;;31.64;43.00;98654.48;1684507;84;21032;-86
2022/08/18 11:10:20;;;;;;;11.28;5.40;;;;;;;31.60;44.42;98654.00;1708915;84;21015;-85
2022/08/18 11:13:06;;;;;;;9.93;6.25;;;;;;;31.53;43.04;98654.41;1671898;85;21044;-86
2022/08/18 11:16:06;;;;;;;9.68;5.87;;;;;;;31.50;44.49;98652.10;1688279;84;21037;-86
2022/08/18 11:18:48;;;;;;;9.05;5.20;;;;;;;31.48;43.41;98661.69;1685084;85;21042;-85
2022/08/18 11:21:41;;;;;;;12.50;5.55;;;;;;;31.47;43.51;98654.63;1659677;85;21002;-85
2022/08/18 11:24:16;;;;;;;9.30;5.40;;;;;;;31.45;43.59;98659.34;1668644;85;21084;-85
2022/08/18 11:26:55;;;;;;;10.72;6.00;;;;;;;31.46;42.52;98649.46;1684804;84;21038;-85
2022/08/18 11:29:31;;;;;;;9.30;5.55;;;;;;;31.40;44.28;98644.28;1635958;86;21869;-87
2022/08/18 11:32:21;;;;;;;10.28;5.55;;;;;;;31.47;43.54;98654.63;1662522;85;21036;-87
2022/08/18 11:35:04;;;;;;;11.50;5.58;;;;;;;31.55;43.45;98657.73;1688745;85;21000;-87
2022/08/18 11:37:42;;;;;;;10.43;5.12;;;;;;;31.70;42.24;98660.45;1662328;82;21031;-87
2022/08/18 11:40:26;;;;;;;10.10;5.87;;;;;;;31.75;42.38;98658.55;1661370;86;21091;-87
2022/08/18 11:43:04;;;;;;;10.08;5.40;;;;;;;31.81;42.77;98657.28;1688660;83;21093;-86
2022/08/18 11:45:37;;;;;;;15.38;7.00;;;;;;;31.91;42.99;98648.94;1707287;82;20987;-87
2022/08/18 11:48:30;;;;;;;9.40;5.62;;;;;;;32.08;42.63;98656.34;1711762;81;21074;-82
2022/08/18 11:51:02;;;;;;;10.55;5.30;;;;;;;32.14;41.71;98650.20;1760660;81;20983;-87
2022/08/18 11:53:43;;;;;;;11.75;5.62;;;;;;;32.18;42.11;98646.64;1760635;81;21035;-87
2022/08/18 11:56:29;;;;;;;9.90;5.65;;;;;;;32.17;42.05;98645.81;1768392;81;21049;-87
2022/08/18 11:59:30;;;;;;;7.62;5.47;;;;;;;32.16;42.56;98645.48;1760480;81;21047;-85
2022/08/18 12:01:58;;;;;;;11.10;5.45;;;;;;;32.14;42.46;98662.83;1745369;81;20984;-88
2022/08/18 12:04:30;;;;;;;8.75;5.10;;;;;;;32.23;41.92;98656.30;1730518;82;20999;-87
2022/08/18 12:07:15;;;;;;;9.55;5.08;;;;;;;32.38;42.55;98648.21;1750886;79;21102;-87
2022/08/18 12:09:50;;;;;;;10.40;5.10;;;;;;;32.73;42.41;98645.70;1731478;81;21020;-89
2022/08/18 12:12:31;;;;;;;12.55;5.08;;;;;;;33.08;40.72;98650.69;1719307;80;21075;-88
2022/08/18 12:15:03;;;;;;;11.97;5.20;;;;;;;33.17;39.98;98641.48;1714730;82;20980;-87
2022/08/18 12:17:31;;;;;;;11.63;5.25;;;;;;;33.38;40.05;98642.45;1757093;81;21150;-89
2022/08/18 12:20:01;;;;;;;9.68;5.20;;;;;;;33.60;40.31;98635.95;1754076;78;21123;-85
2022/08/18 12:22:33;;;;;;;7.95;5.60;;;;;;;33.85;39.98;98633.65;1730673;81;20995;-86